Terminal Aerodrome Forecast
Issued by NWS Norman, OK

Home | Current Version | Previous Version | Text Only | Print | Product List | Glossary On
Versions: 1 2 3 4 5 6 7 8 9 10 11 12
000
FTUS44 KOUN 241120
TAFOKC
TAF
KOKC 241120Z 2412/2512 15007KT P6SM SCT250
     FM241500 19010G15KT P6SM SCT050 SCT250
     FM250000 16007KT P6SM SCT250=

USA.gov is the U.S. government's official web portal to all federal, state and local government web resources and services.